Lincoln, New Hampshire
Current Conditions -  °F | °C
As of 4:55 PM on Wednesday 17 Dec 2014 (Local Time) from K1P1 Reporting Station
Overcast Overcast  
Wind Chill: 31°   Ceiling: 6000
Heat Index: 37°   Visibility: 10mi
Dew Point: 37°   Wind: 8mph
Humidity: 100%   Direction: 290°WNW
Pressure: 29.71"   Gusts: NA
Location:  44.05°N, 71.67°W
Report Text: K1P1 172155Z AUTO 29007KT 10SM OVC060 03/03 A2971 RMK AO2 T00300030
Loading
Personal Weather Stations






























Interactive Weather Map New forecast layout! Learn more

10-Day Weather Forecast

Advertisements
Track Severe Weather on mobile